createdAt,value
2019-04-14T00:00:29.813Z,23.5
2019-04-14T00:01:17.727Z,23.5
2019-04-14T00:02:07.347Z,23.5
2019-04-14T00:02:58.196Z,23.5
2019-04-14T00:03:45.808Z,23.5
2019-04-14T00:04:40.029Z,23.5
2019-04-14T00:05:35.787Z,23.5
2019-04-14T00:06:20.106Z,23.5
2019-04-14T00:07:12.144Z,23.5
2019-04-14T00:07:58.079Z,23.5
2019-04-14T00:08:50.034Z,23.5
2019-04-14T00:09:39.987Z,23.5
2019-04-14T00:10:31.085Z,23.5
2019-04-14T00:11:19.811Z,23.5
2019-04-14T00:12:18.648Z,23.5
2019-04-14T00:13:00.568Z,23.5
2019-04-14T00:13:52.334Z,23.5
2019-04-14T00:14:40.850Z,23.4
2019-04-14T00:16:05.083Z,23.4
2019-04-14T00:16:24.876Z,23.4
2019-04-14T00:17:16.982Z,23.4
2019-04-14T00:18:05.921Z,23.4
2019-04-14T00:18:55.444Z,23.4
2019-04-14T00:19:45.518Z,23.4
2019-04-14T00:20:33.597Z,23.3
2019-04-14T00:21:25.995Z,23.3
2019-04-14T00:22:16.247Z,23.2
2019-04-14T00:23:05.059Z,23.2
2019-04-14T00:23:56.545Z,23.2
2019-04-14T00:24:45.108Z,23.2
2019-04-14T00:25:36.902Z,23.2
2019-04-14T00:26:25.337Z,23.3
2019-04-14T00:27:17.640Z,23.4
2019-04-14T00:28:05.907Z,23.4
2019-04-14T00:28:56.340Z,23.6
2019-04-14T00:29:46.465Z,23.8
2019-04-14T00:30:38.234Z,23.9
2019-04-14T00:31:26.778Z,24.1
2019-04-14T00:32:16.130Z,24.2
2019-04-14T00:33:06.462Z,24.3
2019-04-14T00:33:56.819Z,24.4
2019-04-14T00:34:46.376Z,24.5
2019-04-14T00:35:36.310Z,24.6
2019-04-14T00:36:26.576Z,24.6
2019-04-14T00:37:16.807Z,24.6
2019-04-14T00:38:09.149Z,24.5
2019-04-14T00:38:56.979Z,24.4
2019-04-14T00:39:47.033Z,24.3
2019-04-14T00:40:43.244Z,24.3
2019-04-14T00:42:05.033Z,24.2
2019-04-14T00:42:26.299Z,24.1
2019-04-14T00:43:17.489Z,24.1
2019-04-14T00:44:07.808Z,24.1
2019-04-14T00:44:58.031Z,24
2019-04-14T00:46:14.621Z,24
2019-04-14T00:46:43.656Z,23.9
2019-04-14T00:47:26.678Z,23.9
2019-04-14T00:48:35.118Z,23.9
2019-04-14T00:49:07.524Z,23.9
2019-04-14T00:49:57.788Z,23.9
2019-04-14T00:50:45.906Z,23.9
2019-04-14T00:51:43.998Z,23.9
2019-04-14T00:52:27.567Z,23.9
2019-04-14T00:53:18.949Z,23.9
2019-04-14T00:54:08.423Z,23.8
2019-04-14T00:54:58.365Z,23.8
2019-04-14T00:55:47.505Z,23.9
2019-04-14T00:56:36.862Z,23.8
2019-04-14T00:57:27.922Z,23.9
2019-04-14T00:58:16.981Z,23.8
2019-04-14T00:59:07.585Z,23.8
2019-04-14T00:59:57.292Z,23.8
2019-04-14T01:00:49.878Z,23.8
2019-04-14T01:01:39.400Z,23.8
2019-04-14T01:02:27.441Z,23.8
2019-04-14T01:03:19.853Z,23.8
2019-04-14T01:04:07.630Z,23.8
2019-04-14T01:04:56.210Z,23.8
2019-04-14T01:05:48.865Z,23.8
2019-04-14T01:06:38.732Z,23.8
2019-04-14T01:07:28.830Z,23.8
2019-04-14T01:08:19.045Z,23.8
2019-04-14T01:09:06.905Z,23.8
2019-04-14T01:09:57.515Z,23.7
2019-04-14T01:10:49.649Z,23.7
2019-04-14T01:11:39.911Z,23.7
2019-04-14T01:12:30.397Z,23.7
2019-04-14T01:13:26.678Z,23.7
2019-04-14T01:14:10.073Z,23.6
2019-04-14T01:15:00.687Z,23.6
2019-04-14T01:16:36.667Z,23.5
2019-04-14T01:16:58.975Z,23.4
2019-04-14T01:17:47.044Z,23.4
2019-04-14T01:18:39.144Z,23.3
2019-04-14T01:19:28.648Z,23.3
2019-04-14T01:20:18.880Z,23.3
2019-04-14T01:21:10.936Z,23.4
2019-04-14T01:21:59.384Z,23.4
2019-04-14T01:22:48.740Z,23.6
2019-04-14T01:23:41.155Z,23.7
2019-04-14T01:24:29.754Z,23.9
2019-04-14T01:25:19.839Z,24
2019-04-14T01:26:09.817Z,24.1
2019-04-14T01:26:57.274Z,24.3
2019-04-14T01:27:47.888Z,24.4
2019-04-14T01:28:38.036Z,24.5
2019-04-14T01:29:28.187Z,24.6
2019-04-14T01:30:20.336Z,24.7
2019-04-14T01:31:10.324Z,24.7
2019-04-14T01:32:00.054Z,24.6
2019-04-14T01:32:50.571Z,24.6
2019-04-14T01:33:40.622Z,24.5
2019-04-14T01:34:30.139Z,24.4
2019-04-14T01:35:20.833Z,24.4
2019-04-14T01:36:11.041Z,24.3
2019-04-14T01:37:00.705Z,24.3
2019-04-14T01:37:49.305Z,24.2
2019-04-14T01:38:40.586Z,24.2
2019-04-14T01:39:29.320Z,24.1
2019-04-14T01:40:21.165Z,24.1
2019-04-14T01:41:11.095Z,24.1
2019-04-14T01:42:00.606Z,24.1
2019-04-14T01:42:52.665Z,24.1
2019-04-14T01:43:41.105Z,24
2019-04-14T01:44:30.587Z,24
2019-04-14T01:45:21.060Z,24
2019-04-14T01:46:47.467Z,24
2019-04-14T01:47:13.572Z,23.9
2019-04-14T01:48:00.278Z,23.9
2019-04-14T01:48:51.793Z,24
2019-04-14T01:49:40.259Z,23.9
2019-04-14T01:50:30.534Z,23.9
2019-04-14T01:51:20.232Z,23.9
2019-04-14T01:52:10.229Z,23.9
2019-04-14T01:53:01.031Z,23.9
2019-04-14T01:53:50.959Z,23.9
2019-04-14T01:54:40.662Z,23.9
2019-04-14T01:55:28.759Z,23.9
2019-04-14T01:56:20.854Z,23.9
2019-04-14T01:57:11.692Z,23.9
2019-04-14T01:58:01.472Z,23.9
2019-04-14T01:58:49.096Z,23.9
2019-04-14T01:59:41.189Z,23.9
2019-04-14T02:00:29.176Z,23.9
2019-04-14T02:01:20.030Z,23.8
2019-04-14T02:02:11.810Z,23.8
2019-04-14T02:02:58.106Z,23.9
2019-04-14T02:03:49.839Z,23.8
2019-04-14T02:04:40.323Z,23.8
2019-04-14T02:05:28.455Z,23.8
2019-04-14T02:06:20.154Z,23.8
2019-04-14T02:07:12.298Z,23.8
2019-04-14T02:08:02.243Z,23.8
2019-04-14T02:08:52.469Z,23.8
2019-04-14T02:09:42.937Z,23.7
2019-04-14T02:10:32.564Z,23.6
2019-04-14T02:11:22.387Z,23.5
2019-04-14T02:12:11.086Z,23.4
2019-04-14T02:13:02.759Z,23.4
2019-04-14T02:13:52.870Z,23.4
2019-04-14T02:14:40.826Z,23.4
2019-04-14T02:15:32.950Z,23.4
2019-04-14T02:17:17.639Z,23.6
2019-04-14T02:17:40.146Z,23.8
2019-04-14T02:18:30.126Z,23.8
2019-04-14T02:19:21.916Z,24
2019-04-14T02:20:12.054Z,24.1
2019-04-14T02:21:02.018Z,24.3
2019-04-14T02:21:52.499Z,24.4
2019-04-14T02:22:40.456Z,24.5
2019-04-14T02:23:32.746Z,24.6
2019-04-14T02:24:22.549Z,24.7
2019-04-14T02:25:10.427Z,24.7
2019-04-14T02:26:04.576Z,24.7
2019-04-14T02:26:53.089Z,24.6
2019-04-14T02:27:41.255Z,24.5
2019-04-14T02:28:31.490Z,24.4
2019-04-14T02:29:21.123Z,24.4
2019-04-14T02:33:38.769Z,24.3
2019-04-14T02:48:14.303Z,24
2019-04-14T03:03:15.824Z,23.9
2019-04-14T03:46:08.985Z,24.1
2019-04-14T03:56:19.664Z,23.9
2019-04-14T03:56:44.074Z,23.8
2019-04-14T03:57:40.986Z,23.8
2019-04-14T03:58:29.157Z,23.6
2019-04-14T03:59:12.705Z,23.6
2019-04-14T04:00:03.166Z,23.5
2019-04-14T04:00:55.357Z,23.5
2019-04-14T04:01:41.817Z,23.4
2019-04-14T04:02:33.604Z,23.5
2019-04-14T04:03:21.658Z,23.6
2019-04-14T04:04:14.522Z,23.6
2019-04-14T04:05:02.716Z,23.7
2019-04-14T04:05:56.303Z,23.9
2019-04-14T04:06:44.736Z,24
2019-04-14T04:07:34.768Z,24.1
2019-04-14T04:08:24.901Z,24.3
2019-04-14T04:09:15.171Z,24.4
2019-04-14T04:10:05.683Z,24.6
2019-04-14T04:10:53.720Z,24.7
2019-04-14T04:11:45.989Z,24.8
2019-04-14T04:12:35.651Z,24.8
2019-04-14T04:13:26.415Z,24.8
2019-04-14T04:14:14.435Z,24.7
2019-04-14T04:15:06.632Z,24.6
2019-04-14T04:15:54.216Z,24.6
2019-04-14T04:16:46.100Z,24.4
2019-04-14T04:17:34.668Z,24.4
2019-04-14T04:18:24.589Z,24.3
2019-04-14T04:19:32.094Z,24.3
2019-04-14T04:20:04.531Z,24.3
2019-04-14T04:20:56.430Z,24.2
2019-04-14T04:21:46.422Z,24.1
2019-04-14T04:22:35.222Z,24.1
2019-04-14T04:23:25.317Z,24.1
2019-04-14T04:24:14.899Z,24.1
2019-04-14T04:25:05.587Z,24.1
2019-04-14T04:25:56.975Z,24
2019-04-14T04:26:45.557Z,24
2019-04-14T04:27:33.553Z,24
2019-04-14T04:28:24.086Z,23.9
2019-04-14T04:29:16.247Z,23.9
2019-04-14T04:30:06.429Z,23.9
2019-04-14T04:30:54.369Z,23.9
2019-04-14T04:31:43.916Z,23.9
2019-04-14T04:32:36.713Z,23.9
2019-04-14T04:33:26.856Z,23.9
2019-04-14T04:34:16.167Z,23.9
2019-04-14T04:35:07.034Z,23.9
2019-04-14T04:35:56.951Z,23.9
2019-04-14T04:36:44.726Z,23.9
2019-04-14T04:37:36.803Z,23.8
2019-04-14T04:38:27.381Z,23.8
2019-04-14T04:39:15.414Z,23.8
2019-04-14T04:40:07.116Z,23.8
2019-04-14T04:40:55.273Z,23.8
2019-04-14T04:41:47.729Z,23.8
2019-04-14T04:42:35.601Z,23.8
2019-04-14T04:43:25.995Z,23.8
2019-04-14T04:44:18.500Z,23.8
2019-04-14T04:45:06.740Z,23.7
2019-04-14T04:45:54.504Z,23.7
2019-04-14T04:46:48.370Z,23.7
2019-04-14T04:47:36.471Z,23.7
2019-04-14T04:48:28.445Z,23.7
2019-04-14T04:49:43.279Z,23.7
2019-04-14T04:50:09.076Z,23.6
2019-04-14T04:50:57.071Z,23.6
2019-04-14T04:51:48.638Z,23.6
2019-04-14T04:52:36.952Z,23.5
2019-04-14T04:53:28.702Z,23.5
2019-04-14T04:54:19.418Z,23.5
2019-04-14T04:55:07.295Z,23.5
2019-04-14T04:55:57.466Z,23.6
2019-04-14T04:56:45.813Z,23.6
2019-04-14T04:57:37.295Z,23.6
2019-04-14T04:58:25.943Z,23.8
2019-04-14T04:59:17.546Z,23.9
2019-04-14T05:00:09.757Z,24.1
2019-04-14T05:01:10.860Z,24.2
2019-04-14T05:01:47.315Z,24.4
2019-04-14T05:02:40.015Z,24.4
2019-04-14T05:03:29.607Z,24.6
2019-04-14T05:04:18.060Z,24.7
2019-04-14T05:05:08.186Z,24.8
2019-04-14T05:05:57.612Z,24.8
2019-04-14T05:06:48.557Z,24.8
2019-04-14T05:07:36.727Z,24.7
2019-04-14T05:08:28.305Z,24.6
2019-04-14T05:09:17.283Z,24.5
2019-04-14T05:10:09.601Z,24.4
2019-04-14T05:10:58.858Z,24.3
2019-04-14T05:11:46.925Z,24.3
2019-04-14T05:12:37.731Z,24.3
2019-04-14T05:13:26.942Z,24.2
2019-04-14T05:14:20.133Z,24.1
2019-04-14T05:15:09.622Z,24.1
2019-04-14T05:16:00.391Z,24.1
2019-04-14T05:16:46.604Z,24
2019-04-14T05:17:40.906Z,24
2019-04-14T05:18:28.954Z,24
2019-04-14T05:19:52.391Z,23.9
2019-04-14T05:20:17.984Z,23.9
2019-04-14T05:21:06.577Z,23.9
2019-04-14T05:21:54.311Z,23.9
2019-04-14T05:22:47.146Z,23.9
2019-04-14T05:23:37.231Z,23.9
2019-04-14T05:24:24.544Z,23.9
2019-04-14T05:25:16.706Z,23.9
2019-04-14T05:26:05.543Z,23.8
2019-04-14T05:26:57.545Z,23.8
2019-04-14T05:27:47.262Z,23.8
2019-04-14T05:28:37.405Z,23.8
2019-04-14T05:29:25.840Z,23.8
2019-04-14T05:30:15.895Z,23.8
2019-04-14T05:31:08.069Z,23.8
2019-04-14T05:31:55.422Z,23.8
2019-04-14T05:32:44.103Z,23.8
2019-04-14T05:33:35.992Z,23.8
2019-04-14T05:34:26.068Z,23.7
2019-04-14T05:35:16.670Z,23.7
2019-04-14T05:36:06.232Z,23.7
2019-04-14T05:36:52.845Z,23.7
2019-04-14T05:37:45.113Z,23.6
2019-04-14T05:38:45.493Z,23.6
2019-04-14T05:39:28.497Z,23.6
2019-04-14T05:40:17.243Z,23.6
2019-04-14T05:41:07.474Z,23.6
2019-04-14T05:42:40.623Z,23.6
2019-04-14T05:43:02.384Z,23.5
2019-04-14T05:44:16.955Z,23.6
2019-04-14T05:44:42.516Z,23.5
2019-04-14T05:45:32.637Z,23.5
2019-04-14T05:46:21.178Z,23.5
2019-04-14T05:47:11.840Z,23.5
2019-04-14T05:48:03.747Z,23.5
2019-04-14T05:48:53.595Z,23.6
2019-04-14T05:50:09.391Z,23.6
2019-04-14T05:50:33.430Z,23.8
2019-04-14T05:51:30.421Z,23.8
2019-04-14T05:52:11.933Z,23.9
2019-04-14T05:53:02.154Z,24.1
2019-04-14T05:53:52.254Z,24.3
2019-04-14T05:54:43.004Z,24.4
2019-04-14T05:55:33.252Z,24.5
2019-04-14T05:56:21.411Z,24.6
2019-04-14T05:57:11.761Z,24.7
2019-04-14T05:58:01.917Z,24.8
2019-04-14T05:58:51.994Z,24.8
2019-04-14T05:59:42.268Z,24.7
2019-04-14T06:00:34.735Z,24.6
2019-04-14T06:01:23.007Z,24.5
2019-04-14T06:02:11.541Z,24.4
2019-04-14T06:03:02.377Z,24.4
2019-04-14T06:05:18.853Z,24.3
2019-04-14T06:05:56.477Z,24.2
2019-04-14T06:06:46.039Z,24.1
2019-04-14T06:07:35.783Z,24.1
2019-04-14T06:08:25.831Z,24.1
2019-04-14T06:09:16.430Z,24.1
2019-04-14T06:10:05.976Z,24.1
2019-04-14T06:10:55.708Z,24.1
2019-04-14T06:11:46.391Z,24
2019-04-14T06:12:35.846Z,24
2019-04-14T06:13:26.479Z,24
2019-04-14T06:14:15.518Z,24
2019-04-14T06:15:06.391Z,23.9
2019-04-14T06:15:56.088Z,23.9
2019-04-14T06:16:46.976Z,23.9
2019-04-14T06:17:36.530Z,23.9
2019-04-14T06:18:25.790Z,23.9
2019-04-14T06:19:16.387Z,23.9
2019-04-14T06:20:06.791Z,23.9
2019-04-14T06:20:56.535Z,23.9
2019-04-14T06:21:46.591Z,23.9
2019-04-14T06:22:36.680Z,23.8
2019-04-14T06:23:27.000Z,23.9
2019-04-14T06:24:17.578Z,23.9
2019-04-14T06:25:06.987Z,23.8
2019-04-14T06:25:56.915Z,23.8
2019-04-14T06:26:47.327Z,23.8
2019-04-14T06:27:37.287Z,23.8
2019-04-14T06:28:27.098Z,23.8
2019-04-14T06:29:16.545Z,23.8
2019-04-14T06:30:07.217Z,23.8
2019-04-14T06:30:56.712Z,23.8
2019-04-14T06:31:47.312Z,23.8
2019-04-14T06:32:37.353Z,23.8
2019-04-14T06:33:25.785Z,23.8
2019-04-14T06:34:17.214Z,23.8
2019-04-14T06:35:07.842Z,23.8
2019-04-14T06:35:57.617Z,23.8
2019-04-14T06:36:47.919Z,23.8
2019-04-14T06:37:36.440Z,23.8
2019-04-14T06:38:27.402Z,23.8
2019-04-14T06:39:17.654Z,23.8
2019-04-14T06:40:07.179Z,23.7
2019-04-14T06:40:57.994Z,23.7
2019-04-14T06:41:47.828Z,23.7
2019-04-14T06:42:38.326Z,23.7
2019-04-14T06:43:28.170Z,23.7
2019-04-14T06:44:17.213Z,23.6
2019-04-14T06:45:08.072Z,23.6
2019-04-14T06:45:58.799Z,23.6
2019-04-14T06:46:49.512Z,23.6
2019-04-14T06:47:38.654Z,23.6
2019-04-14T06:48:29.006Z,23.6
2019-04-14T06:49:18.881Z,23.6
2019-04-14T06:50:08.671Z,23.6
2019-04-14T06:50:59.174Z,23.6
2019-04-14T06:51:48.474Z,23.5
2019-04-14T06:52:39.354Z,23.5
2019-04-14T06:53:29.708Z,23.4
2019-04-14T06:54:19.221Z,23.4
2019-04-14T06:55:09.300Z,23.4
2019-04-14T06:56:01.138Z,23.4
2019-04-14T06:56:49.078Z,23.4
2019-04-14T06:57:39.513Z,23.4
2019-04-14T06:58:29.714Z,23.6
2019-04-14T06:59:19.279Z,23.7
2019-04-14T07:00:09.722Z,23.8
2019-04-14T07:00:59.090Z,23.9
2019-04-14T07:01:50.588Z,23.8
2019-04-14T07:02:40.038Z,23.8
2019-04-14T07:05:05.310Z,23.7
2019-04-14T07:05:55.617Z,23.6
2019-04-14T07:06:46.070Z,23.6
2019-04-14T07:07:34.400Z,23.6
2019-04-14T07:08:25.780Z,23.6
2019-04-14T07:09:15.716Z,23.5
2019-04-14T07:10:06.207Z,23.5
2019-04-14T07:10:56.197Z,23.5
2019-04-14T07:11:45.747Z,23.4
2019-04-14T07:12:36.410Z,23.4
2019-04-14T07:13:27.565Z,23.4
2019-04-14T07:14:14.947Z,23.4
2019-04-14T07:15:06.812Z,23.4
2019-04-14T07:15:56.873Z,23.4
2019-04-14T07:16:47.288Z,23.4
2019-04-14T07:17:37.030Z,23.5
2019-04-14T07:18:25.981Z,23.5
2019-04-14T07:19:17.155Z,23.5
2019-04-14T07:20:09.630Z,23.5
2019-04-14T07:20:57.382Z,23.5
2019-04-14T07:21:46.814Z,23.5
2019-04-14T07:22:37.072Z,23.5
2019-04-14T07:23:26.874Z,23.6
2019-04-14T07:24:16.947Z,23.6
2019-04-14T07:25:06.826Z,23.6
2019-04-14T07:25:57.285Z,23.6
2019-04-14T07:26:47.936Z,23.6
2019-04-14T07:27:36.429Z,23.6
2019-04-14T07:28:27.617Z,23.6
2019-04-14T07:29:20.718Z,23.6
2019-04-14T07:30:07.693Z,23.6
2019-04-14T07:30:57.699Z,23.6
2019-04-14T07:31:47.761Z,23.6
2019-04-14T07:32:37.606Z,23.6
2019-04-14T07:33:27.864Z,23.6
2019-04-14T07:34:17.384Z,23.6
2019-04-14T07:35:08.604Z,23.6
2019-04-14T07:35:58.318Z,23.6
2019-04-14T07:36:47.839Z,23.6
2019-04-14T07:37:37.932Z,23.6
2019-04-14T07:38:28.531Z,23.5
2019-04-14T07:39:18.646Z,23.5
2019-04-14T07:40:07.704Z,23.4
2019-04-14T07:40:58.773Z,23.4
2019-04-14T07:41:47.926Z,23.4
2019-04-14T07:42:38.819Z,23.4
2019-04-14T07:43:28.058Z,23.3
2019-04-14T07:44:22.046Z,23.3
2019-04-14T07:45:08.514Z,23.2
2019-04-14T07:45:59.467Z,23.2
2019-04-14T07:46:49.278Z,23.1
2019-04-14T07:47:39.529Z,23.1
2019-04-14T07:48:29.285Z,23.2
2019-04-14T07:49:18.782Z,23.1
2019-04-14T07:50:22.005Z,23.2
2019-04-14T07:50:59.450Z,23.2
2019-04-14T07:51:49.088Z,23.3
2019-04-14T07:52:38.925Z,23.3
2019-04-14T07:53:28.909Z,23.4
2019-04-14T07:54:19.214Z,23.4
2019-04-14T07:55:09.258Z,23.3
2019-04-14T07:55:59.617Z,23.1
2019-04-14T07:56:48.607Z,23
2019-04-14T07:57:39.399Z,22.8
2019-04-14T07:58:30.020Z,22.8
2019-04-14T07:59:19.800Z,22.6
2019-04-14T08:00:09.328Z,22.5
2019-04-14T08:00:59.702Z,22.4
2019-04-14T08:01:49.965Z,22.3
2019-04-14T08:02:39.224Z,22.2
2019-04-14T08:03:29.862Z,22.1
2019-04-14T08:04:20.202Z,22
2019-04-14T08:05:09.767Z,21.9
2019-04-14T08:06:00.023Z,21.8
2019-04-14T08:06:50.716Z,21.8
2019-04-14T08:07:39.594Z,21.8
2019-04-14T08:08:30.183Z,21.9
2019-04-14T08:09:21.054Z,21.9
2019-04-14T08:10:10.362Z,21.9
2019-04-14T08:11:00.097Z,22
2019-04-14T08:11:50.543Z,22
2019-04-14T08:12:41.773Z,22
2019-04-14T08:13:30.847Z,22
2019-04-14T08:14:20.899Z,22
2019-04-14T08:15:10.724Z,22.1
2019-04-14T08:16:00.009Z,22.1
2019-04-14T08:16:51.710Z,22.1
2019-04-14T08:17:39.816Z,22.1
2019-04-14T08:18:31.481Z,22.1
2019-04-14T08:19:21.276Z,22.1
2019-04-14T08:20:11.106Z,22.1
2019-04-14T08:21:01.451Z,22.1
2019-04-14T08:21:50.933Z,22.1
2019-04-14T08:22:41.269Z,22.1
2019-04-14T08:23:31.269Z,22.2
2019-04-14T08:24:20.286Z,22.1
2019-04-14T08:25:10.842Z,22.2
2019-04-14T08:26:01.991Z,22.1
2019-04-14T08:26:51.380Z,22.1
2019-04-14T08:27:42.386Z,22.1
2019-04-14T08:28:32.178Z,22.1
2019-04-14T08:29:21.528Z,22.1
2019-04-14T08:30:12.376Z,22.1
2019-04-14T08:31:02.207Z,22.1
2019-04-14T08:31:51.884Z,22.1
2019-04-14T08:32:42.350Z,22.1
2019-04-14T08:33:32.346Z,22.1
2019-04-14T08:34:22.946Z,22.1
2019-04-14T08:35:11.848Z,22.1
2019-04-14T08:36:03.033Z,22.1
2019-04-14T08:36:51.780Z,22
2019-04-14T08:37:42.030Z,22
2019-04-14T08:38:32.937Z,22.2
2019-04-14T08:39:22.691Z,22.3
2019-04-14T08:40:12.533Z,22.4
2019-04-14T08:41:02.032Z,22.5
2019-04-14T08:41:52.292Z,22.6
2019-04-14T08:42:42.678Z,22.6
2019-04-14T08:43:32.770Z,22.6
2019-04-14T08:44:22.810Z,22.7
2019-04-14T08:45:13.467Z,22.8
2019-04-14T08:46:02.685Z,22.9
2019-04-14T08:46:52.995Z,23
2019-04-14T08:47:42.860Z,23
2019-04-14T08:48:32.542Z,23
2019-04-14T08:49:23.733Z,23
2019-04-14T08:50:13.502Z,22.9
2019-04-14T08:51:03.545Z,22.9
2019-04-14T08:51:53.677Z,22.8
2019-04-14T08:52:43.702Z,22.8
2019-04-14T08:53:33.147Z,22.8
2019-04-14T08:54:23.812Z,22.7
2019-04-14T08:55:14.174Z,22.7
2019-04-14T08:56:03.652Z,22.7
2019-04-14T08:56:53.476Z,22.7
2019-04-14T08:57:43.838Z,22.6
2019-04-14T08:58:32.734Z,22.7
2019-04-14T08:59:23.112Z,22.7
2019-04-14T09:00:14.014Z,22.7
2019-04-14T09:01:03.765Z,22.7
2019-04-14T09:01:53.659Z,22.7
2019-04-14T09:02:43.362Z,22.8
2019-04-14T09:03:34.177Z,22.8
2019-04-14T09:04:23.996Z,22.8
2019-04-14T09:05:13.894Z,22.8
2019-04-14T09:06:03.632Z,22.8
2019-04-14T09:06:55.006Z,22.8
2019-04-14T09:07:44.753Z,22.9
2019-04-14T09:08:34.816Z,22.9
2019-04-14T09:09:24.369Z,22.9
2019-04-14T09:10:15.309Z,22.9
2019-04-14T09:11:04.983Z,22.9
2019-04-14T09:11:55.092Z,22.9
2019-04-14T09:12:44.871Z,22.9
2019-04-14T09:13:34.998Z,22.9
2019-04-14T09:14:25.553Z,22.9
2019-04-14T09:15:15.448Z,22.9
2019-04-14T09:16:04.414Z,22.9
2019-04-14T09:16:55.456Z,22.9
2019-04-14T09:17:45.286Z,22.9
2019-04-14T09:18:35.418Z,22.9
2019-04-14T09:19:25.438Z,22.9
2019-04-14T09:20:14.808Z,22.9
2019-04-14T09:21:03.927Z,22.9
2019-04-14T09:21:56.368Z,22.9
2019-04-14T09:22:45.935Z,22.9
2019-04-14T09:23:36.248Z,22.9
2019-04-14T09:24:25.034Z,22.8
2019-04-14T09:25:15.786Z,22.8
2019-04-14T09:26:05.884Z,22.8
2019-04-14T09:26:56.180Z,22.8
2019-04-14T09:27:45.707Z,22.7
2019-04-14T09:28:36.867Z,22.7
2019-04-14T09:29:26.207Z,22.7
2019-04-14T09:30:16.405Z,22.7
2019-04-14T09:31:06.007Z,22.6
2019-04-14T09:31:57.102Z,22.4
2019-04-14T09:32:46.914Z,22.3
2019-04-14T09:33:37.015Z,22.3
2019-04-14T09:34:26.719Z,22.2
2019-04-14T09:35:16.292Z,22.2
2019-04-14T09:36:06.587Z,22.1
2019-04-14T09:36:56.411Z,22.1
2019-04-14T09:37:47.094Z,22.2
2019-04-14T09:38:37.038Z,22.3
2019-04-14T09:39:26.886Z,22.4
2019-04-14T09:40:16.566Z,22.6
2019-04-14T09:41:06.643Z,22.7
2019-04-14T09:41:57.288Z,22.7
2019-04-14T09:42:46.526Z,22.6
2019-04-14T09:43:37.664Z,22.6
2019-04-14T09:44:26.936Z,22.6
2019-04-14T09:45:17.251Z,22.5
2019-04-14T09:46:07.592Z,22.5
2019-04-14T09:46:57.119Z,22.4
2019-04-14T09:47:47.521Z,22.4
2019-04-14T09:48:37.277Z,22.4
2019-04-14T09:49:27.017Z,22.3
2019-04-14T09:50:16.523Z,22.3
2019-04-14T09:51:11.864Z,22.3
2019-04-14T09:51:57.735Z,22.3
2019-04-14T09:52:47.838Z,22.3
2019-04-14T09:53:37.573Z,22.3
2019-04-14T09:54:28.180Z,22.3
2019-04-14T09:55:18.814Z,22.3
2019-04-14T09:56:08.626Z,22.4
2019-04-14T09:56:58.161Z,22.4
2019-04-14T09:57:48.301Z,22.4
2019-04-14T09:58:38.765Z,22.4
2019-04-14T09:59:28.843Z,22.4
2019-04-14T10:00:17.568Z,22.4
2019-04-14T10:01:11.541Z,22.5
2019-04-14T10:01:58.305Z,22.4
2019-04-14T10:02:48.533Z,22.5
2019-04-14T10:03:39.461Z,22.5
2019-04-14T10:06:06.151Z,22.6
2019-04-14T10:06:56.088Z,22.6
2019-04-14T10:07:46.061Z,22.6
2019-04-14T10:08:34.518Z,22.6
2019-04-14T10:09:26.255Z,22.6
2019-04-14T10:10:17.040Z,22.6
2019-04-14T10:11:05.830Z,22.6
2019-04-14T10:12:03.223Z,22.6
2019-04-14T10:12:46.537Z,22.6
2019-04-14T10:13:35.963Z,22.6
2019-04-14T10:14:25.747Z,22.6
2019-04-14T10:15:15.834Z,22.5
2019-04-14T10:16:05.624Z,22.5
2019-04-14T10:16:56.480Z,22.5
2019-04-14T10:17:45.494Z,22.4
2019-04-14T10:18:36.057Z,22.4
2019-04-14T10:19:25.274Z,22.4
2019-04-14T10:20:16.984Z,22.4
2019-04-14T10:21:20.547Z,22.4
2019-04-14T10:21:56.334Z,22.4
2019-04-14T10:22:46.099Z,22.4
2019-04-14T10:23:39.969Z,22.4
2019-04-14T10:24:26.824Z,22.4
2019-04-14T10:25:16.837Z,22.4
2019-04-14T10:26:07.195Z,22.1
2019-04-14T10:26:56.369Z,22
2019-04-14T10:27:47.344Z,21.9
2019-04-14T10:28:37.029Z,21.9
2019-04-14T10:29:26.869Z,21.8
2019-04-14T10:30:17.499Z,21.8
2019-04-14T10:31:07.235Z,21.9
2019-04-14T10:31:57.839Z,21.9
2019-04-14T10:32:46.797Z,22
2019-04-14T10:33:37.735Z,22.1
2019-04-14T10:34:26.989Z,22.3
2019-04-14T10:35:17.604Z,22.4
2019-04-14T10:36:07.432Z,22.5
2019-04-14T10:36:56.919Z,22.4
2019-04-14T10:37:47.119Z,22.4
2019-04-14T10:38:37.764Z,22.4
2019-04-14T10:39:25.696Z,22.4
2019-04-14T10:40:17.182Z,22.4
2019-04-14T10:41:08.324Z,22.4
2019-04-14T10:41:57.819Z,22.3
2019-04-14T10:42:48.644Z,22.3
2019-04-14T10:43:38.454Z,22.3
2019-04-14T10:44:27.697Z,22.3
2019-04-14T10:45:21.057Z,22.3
2019-04-14T10:46:08.679Z,22.3
2019-04-14T10:46:58.419Z,22.4
2019-04-14T10:47:47.899Z,22.3
2019-04-14T10:48:38.304Z,22.4
2019-04-14T10:49:28.083Z,22.4
2019-04-14T10:50:32.572Z,22.4
2019-04-14T10:51:09.274Z,22.4
2019-04-14T10:51:59.072Z,22.5
2019-04-14T10:52:48.294Z,22.5
2019-04-14T10:53:39.252Z,22.6
2019-04-14T10:54:29.410Z,22.6
2019-04-14T10:55:19.074Z,22.6
2019-04-14T10:56:09.642Z,22.7
2019-04-14T10:57:02.657Z,22.7
2019-04-14T10:57:49.274Z,22.8
2019-04-14T10:58:39.826Z,22.8
2019-04-14T10:59:29.892Z,22.8
2019-04-14T11:00:19.166Z,22.8
2019-04-14T11:01:09.221Z,22.9
2019-04-14T11:02:00.134Z,22.9
2019-04-14T11:02:49.070Z,22.9
2019-04-14T11:03:39.935Z,22.9
2019-04-14T11:04:29.663Z,22.9
2019-04-14T11:05:20.307Z,22.9
2019-04-14T11:06:09.262Z,22.9
2019-04-14T11:07:00.149Z,22.9
2019-04-14T11:07:50.272Z,23
2019-04-14T11:08:39.983Z,23
2019-04-14T11:09:29.485Z,23
2019-04-14T11:10:19.579Z,23
2019-04-14T11:11:10.999Z,23
2019-04-14T11:11:59.193Z,23
2019-04-14T11:12:50.129Z,23
2019-04-14T11:13:40.355Z,23.1
2019-04-14T11:14:29.366Z,23
2019-04-14T11:15:21.854Z,23
2019-04-14T11:16:10.569Z,23
2019-04-14T11:17:00.568Z,23
2019-04-14T11:17:50.941Z,23
2019-04-14T11:18:40.749Z,23
2019-04-14T11:19:30.511Z,23
2019-04-14T11:20:20.561Z,22.8
2019-04-14T11:21:11.494Z,22.4
2019-04-14T11:22:00.936Z,22.3
2019-04-14T11:23:04.553Z,22.1
2019-04-14T11:23:40.807Z,22.1
2019-04-14T11:24:30.993Z,22
2019-04-14T11:25:21.184Z,21.9
2019-04-14T11:26:10.804Z,21.9
2019-04-14T11:27:01.900Z,22
2019-04-14T11:27:52.228Z,22.1
2019-04-14T11:28:41.755Z,22.3
2019-04-14T11:29:32.351Z,22.4
2019-04-14T11:30:22.098Z,22.4
2019-04-14T11:31:11.636Z,22.4
2019-04-14T11:32:02.026Z,22.4
2019-04-14T11:32:51.519Z,22.4
2019-04-14T11:33:41.056Z,22.3
2019-04-14T11:34:32.178Z,22.3
2019-04-14T11:35:23.864Z,22.3
2019-04-14T11:36:12.581Z,22.2
2019-04-14T11:37:02.150Z,22.1
2019-04-14T11:37:52.255Z,22.1
2019-04-14T11:38:42.307Z,22.1
2019-04-14T11:39:32.355Z,22.1
2019-04-14T11:40:22.293Z,22.1
2019-04-14T11:41:12.996Z,22.1
2019-04-14T11:42:03.383Z,22.1
2019-04-14T11:43:00.033Z,22.1
2019-04-14T11:43:42.985Z,22.1
2019-04-14T11:44:32.744Z,22.1
2019-04-14T11:45:23.246Z,22.2
2019-04-14T11:46:13.659Z,22.2
2019-04-14T11:47:02.590Z,22.3
2019-04-14T11:47:53.457Z,22.3
2019-04-14T11:48:42.904Z,22.3
2019-04-14T11:49:33.318Z,22.3
2019-04-14T11:50:22.849Z,22.4
2019-04-14T11:51:12.334Z,22.4
2019-04-14T11:52:03.489Z,22.4
2019-04-14T11:52:52.692Z,22.4
2019-04-14T11:53:44.116Z,22.4
2019-04-14T11:54:33.911Z,22.5
2019-04-14T11:55:22.653Z,22.5
2019-04-14T11:56:14.132Z,22.5
2019-04-14T11:57:03.576Z,22.6
2019-04-14T11:57:53.530Z,22.6
2019-04-14T11:58:44.270Z,22.6
2019-04-14T11:59:33.191Z,22.6
2019-04-14T12:00:24.502Z,22.6
2019-04-14T12:01:13.553Z,22.6
2019-04-14T12:02:04.307Z,22.6
2019-04-14T12:02:54.316Z,22.6
2019-04-14T12:03:44.343Z,22.6
2019-04-14T12:06:35.209Z,22.6
2019-04-14T12:07:11.818Z,22.6
2019-04-14T12:08:00.750Z,22.6
2019-04-14T12:08:35.413Z,22.6
2019-04-14T12:09:25.816Z,22.5
2019-04-14T12:10:16.058Z,22.5
2019-04-14T12:11:06.442Z,22.5
2019-04-14T12:11:56.806Z,22.4
2019-04-14T12:12:45.868Z,22.5
2019-04-14T12:13:35.113Z,22.4
2019-04-14T12:14:42.011Z,22.4
2019-04-14T12:15:23.850Z,22.3
2019-04-14T12:16:06.396Z,22.1
2019-04-14T12:16:57.024Z,22.1
2019-04-14T12:17:46.601Z,22
2019-04-14T12:18:51.750Z,21.9
2019-04-14T12:19:41.762Z,21.9
2019-04-14T12:20:16.015Z,21.9
2019-04-14T12:21:06.840Z,21.9
2019-04-14T12:22:10.371Z,22
2019-04-14T12:22:46.060Z,22.2
2019-04-14T12:23:36.635Z,22.3
2019-04-14T12:24:26.918Z,22.4
2019-04-14T12:25:17.865Z,22.5
2019-04-14T12:26:27.404Z,22.5
2019-04-14T12:26:57.029Z,22.4
2019-04-14T12:27:54.099Z,22.4
2019-04-14T12:28:45.452Z,22.4
2019-04-14T12:29:50.614Z,22.3
2019-04-14T12:30:27.355Z,22.3
2019-04-14T12:31:17.308Z,22.3
2019-04-14T12:32:18.867Z,22.3
2019-04-14T12:32:47.277Z,22.2
2019-04-14T12:33:38.348Z,22.2
2019-04-14T12:34:41.404Z,22.2
2019-04-14T12:35:32.792Z,22.1
2019-04-14T12:36:08.583Z,22.1
2019-04-14T12:36:58.669Z,22.1
2019-04-14T12:37:48.406Z,22.2
2019-04-14T12:38:37.766Z,22.2
2019-04-14T12:39:27.540Z,22.2